Time;durP1;ratioP1;P1;durP2;ratioP2;P2;SDS_P1;SDS_P2;PMS_P1;PMS_P2;Temp;Humidity;BMP_temperature;BMP_pressure;BME280_temperature;BME280_humidity;BME280_pressure;Samples;Min_cycle;Max_cycle;Signal;HPM_P1;HPM_P2
2023/03/27 00:00:31;;;;;;;3.63;1.00;;;4.40;99.90;;;;;;5035374;28;20289;-83
2023/03/27 00:02:57;;;;;;;1.93;0.90;;;4.40;99.90;;;;;;5034606;28;20382;-83
2023/03/27 00:05:24;;;;;;;3.20;0.80;;;4.30;99.90;;;;;;5017451;28;20557;-83
2023/03/27 00:07:54;;;;;;;1.53;0.73;;;4.30;99.90;;;;;;5034828;28;20497;-83
2023/03/27 00:10:22;;;;;;;2.53;0.90;;;4.40;99.90;;;;;;5035372;28;20228;-83
2023/03/27 00:12:48;;;;;;;2.60;1.00;;;4.40;99.90;;;;;;5035251;28;20198;-82
2023/03/27 00:15:16;;;;;;;2.00;0.73;;;4.40;99.90;;;;;;5018727;28;20183;-83
2023/03/27 00:17:47;;;;;;;1.83;0.80;;;4.40;99.90;;;;;;5016003;28;20583;-84
2023/03/27 00:20:22;;;;;;;4.70;0.80;;;4.30;99.90;;;;;;5017797;28;20305;-83
2023/03/27 00:22:54;;;;;;;3.23;0.87;;;4.30;99.90;;;;;;5035212;28;20296;-84
2023/03/27 00:25:27;;;;;;;7.23;1.00;;;4.30;99.90;;;;;;5035817;28;20229;-83
2023/03/27 00:27:57;;;;;;;4.20;0.73;;;4.30;99.90;;;;;;5016888;28;20194;-83
2023/03/27 00:30:25;;;;;;;2.13;0.90;;;4.20;99.90;;;;;;5033657;28;20642;-83
2023/03/27 00:32:54;;;;;;;1.77;0.60;;;4.20;99.90;;;;;;5017344;28;20190;-83
2023/03/27 00:35:20;;;;;;;3.37;0.80;;;4.20;99.90;;;;;;5018507;28;20178;-84
2023/03/27 00:37:47;;;;;;;3.80;0.90;;;4.20;99.90;;;;;;5027155;28;20639;-83
2023/03/27 00:40:16;;;;;;;2.23;0.80;;;4.10;99.90;;;;;;5001510;28;20222;-83
2023/03/27 00:42:43;;;;;;;1.10;0.50;;;4.10;99.90;;;;;;5021484;28;20210;-83
2023/03/27 00:45:21;;;;;;;3.27;0.87;;;4.10;99.90;;;;;;5012637;28;20195;-82
2023/03/27 00:47:55;;;;;;;4.27;0.87;;;4.10;99.90;;;;;;5007869;28;20617;-83
2023/03/27 00:50:31;;;;;;;3.67;0.60;;;4.00;99.90;;;;;;5035171;28;20190;-82
2023/03/27 00:53:01;;;;;;;2.37;0.70;;;3.90;99.90;;;;;;5034957;28;20244;-84
2023/03/27 00:55:30;;;;;;;1.77;0.60;;;3.90;99.90;;;;;;5035928;28;20193;-83
2023/03/27 00:58:04;;;;;;;2.93;0.97;;;3.80;99.90;;;;;;5034096;28;20245;-84
2023/03/27 01:00:31;;;;;;;4.00;0.77;;;3.80;99.90;;;;;;5017220;28;20632;-82
2023/03/27 01:02:59;;;;;;;3.07;0.90;;;3.70;99.90;;;;;;5016928;28;20301;-83
2023/03/27 01:05:26;;;;;;;3.57;0.97;;;3.50;99.90;;;;;;5035827;28;20183;-83
2023/03/27 01:07:53;;;;;;;4.33;0.90;;;3.50;99.90;;;;;;5012912;28;20213;-83
2023/03/27 01:10:19;;;;;;;1.33;0.70;;;3.40;99.90;;;;;;5012891;28;20240;-84
2023/03/27 01:13:07;;;;;;;2.30;0.80;;;3.30;99.90;;;;;;5034660;28;20198;-83
2023/03/27 01:15:40;;;;;;;1.00;0.63;;;3.30;99.90;;;;;;5035641;28;20166;-83
2023/03/27 01:18:13;;;;;;;4.53;1.00;;;3.20;99.90;;;;;;5030518;28;20187;-82
2023/03/27 01:21:04;;;;;;;4.40;0.77;;;3.30;99.90;;;;;;5012082;28;20274;-83
2023/03/27 01:23:59;;;;;;;2.83;0.80;;;3.10;99.90;;;;;;5032075;28;20244;-83
2023/03/27 01:26:56;;;;;;;4.03;0.83;;;3.10;99.90;;;;;;4973511;28;20202;-83
2023/03/27 01:29:49;;;;;;;3.23;0.97;;;3.00;99.90;;;;;;5020882;28;20198;-83
2023/03/27 01:32:43;;;;;;;4.33;0.97;;;3.00;99.90;;;;;;5015320;28;20182;-81
2023/03/27 01:35:16;;;;;;;2.83;1.00;;;3.00;99.90;;;;;;5015337;28;20944;-83
2023/03/27 01:38:04;;;;;;;3.53;0.90;;;3.00;99.90;;;;;;4995248;28;20230;-82
2023/03/27 01:40:40;;;;;;;3.93;0.93;;;2.80;99.90;;;;;;5012512;28;20277;-82
2023/03/27 01:43:12;;;;;;;5.10;1.37;;;2.80;99.90;;;;;;5014107;28;20550;-83
2023/03/27 01:45:38;;;;;;;1.27;0.70;;;2.80;99.90;;;;;;5013917;28;20179;-82
2023/03/27 01:48:10;;;;;;;2.77;0.90;;;2.70;99.90;;;;;;4995349;28;20230;-82
2023/03/27 01:50:52;;;;;;;3.53;1.00;;;2.70;99.90;;;;;;4996015;28;20202;-82
2023/03/27 01:53:27;;;;;;;2.47;0.70;;;2.70;99.90;;;;;;5012651;28;20172;-83
2023/03/27 01:55:58;;;;;;;4.77;1.00;;;2.60;99.90;;;;;;5013854;28;20515;-83
2023/03/27 01:58:32;;;;;;;2.33;0.90;;;2.60;99.90;;;;;;5004170;28;20191;-83
2023/03/27 02:01:00;;;;;;;2.80;0.63;;;2.60;99.90;;;;;;5010184;28;20167;-82
2023/03/27 02:03:34;;;;;;;2.97;0.93;;;2.50;99.90;;;;;;4992001;28;20555;-84
2023/03/27 02:06:11;;;;;;;5.73;1.30;;;2.50;99.90;;;;;;5001308;28;20230;-83
2023/03/27 02:08:47;;;;;;;6.27;1.20;;;2.40;99.90;;;;;;4982615;28;20523;-83
2023/03/27 02:11:13;;;;;;;4.77;0.87;;;2.40;99.90;;;;;;4996747;28;20175;-82
2023/03/27 02:14:04;;;;;;;6.37;1.07;;;2.40;99.90;;;;;;4995649;28;20183;-82
2023/03/27 02:16:34;;;;;;;6.10;1.13;;;2.30;99.90;;;;;;5014115;28;20254;-82
2023/03/27 02:19:03;;;;;;;4.60;1.10;;;2.30;99.90;;;;;;4995938;28;20191;-82
2023/03/27 02:21:32;;;;;;;5.73;1.10;;;2.30;99.90;;;;;;5012068;28;20241;-84
2023/03/27 02:24:00;;;;;;;4.57;0.90;;;2.20;99.90;;;;;;5013347;28;20213;-82
2023/03/27 02:26:27;;;;;;;4.63;1.17;;;2.20;99.90;;;;;;5012082;28;20194;-82
2023/03/27 02:29:03;;;;;;;2.80;1.10;;;2.20;99.90;;;;;;5012329;28;20195;-83
2023/03/27 02:31:41;;;;;;;3.47;1.30;;;2.20;99.90;;;;;;4994587;28;20560;-82
2023/03/27 02:34:34;;;;;;;2.80;0.77;;;2.10;99.90;;;;;;5013291;28;20191;-82
2023/03/27 02:37:08;;;;;;;5.10;1.30;;;2.00;99.90;;;;;;5029012;28;20312;-83
2023/03/27 02:39:57;;;;;;;3.40;1.00;;;2.00;99.90;;;;;;5033887;28;20159;-83
2023/03/27 02:42:53;;;;;;;7.70;1.33;;;2.00;99.90;;;;;;5018086;28;20187;-83
2023/03/27 02:45:25;;;;;;;5.93;1.10;;;1.90;99.90;;;;;;5011241;28;20210;-82
2023/03/27 02:48:16;;;;;;;2.80;0.90;;;2.00;99.90;;;;;;5032133;28;20197;-82
2023/03/27 02:51:07;;;;;;;7.83;1.30;;;1.90;99.90;;;;;;5032676;28;20273;-83
2023/03/27 02:53:53;;;;;;;4.40;1.17;;;1.90;99.90;;;;;;5030074;28;20237;-83
2023/03/27 02:56:21;;;;;;;3.47;1.10;;;1.90;99.90;;;;;;5032890;28;20185;-82
2023/03/27 02:58:58;;;;;;;4.40;0.90;;;1.80;99.90;;;;;;5032759;28;20181;-82
2023/03/27 03:01:25;;;;;;;3.93;0.80;;;1.80;99.90;;;;;;5033382;28;20201;-82
2023/03/27 03:04:03;;;;;;;4.87;1.20;;;1.80;99.90;;;;;;5029415;28;20233;-82
2023/03/27 03:06:29;;;;;;;5.17;1.07;;;1.70;99.90;;;;;;5031284;28;20286;-83
2023/03/27 03:09:01;;;;;;;6.47;1.03;;;1.60;99.90;;;;;;5048861;28;20315;-82
2023/03/27 03:11:28;;;;;;;8.27;1.43;;;1.60;99.90;;;;;;5046109;28;20798;-82
2023/03/27 03:13:54;;;;;;;3.07;0.80;;;1.60;99.90;;;;;;5031936;28;20190;-82
2023/03/27 03:16:20;;;;;;;3.33;0.90;;;1.50;99.90;;;;;;5032093;28;20237;-82
2023/03/27 03:18:46;;;;;;;8.10;1.10;;;1.60;99.90;;;;;;5030978;28;20183;-83
2023/03/27 03:21:11;;;;;;;4.03;0.70;;;1.50;99.90;;;;;;5030344;28;20183;-83
2023/03/27 03:23:37;;;;;;;4.20;0.83;;;1.60;99.90;;;;;;5033002;28;20524;-82
2023/03/27 03:26:05;;;;;;;4.90;1.17;;;1.50;99.90;;;;;;5030730;28;20643;-83
2023/03/27 03:28:34;;;;;;;4.23;0.93;;;1.50;99.90;;;;;;5047758;28;20623;-83
2023/03/27 03:31:01;;;;;;;4.63;1.00;;;1.40;99.90;;;;;;5044762;28;20185;-83
2023/03/27 03:33:28;;;;;;;3.83;1.07;;;1.40;99.90;;;;;;5048736;28;20217;-83
2023/03/27 03:35:59;;;;;;;5.23;1.10;;;1.40;99.90;;;;;;5032479;28;20190;-83
2023/03/27 03:38:25;;;;;;;6.17;1.00;;;1.30;99.90;;;;;;5030946;28;20535;-83
2023/03/27 03:41:01;;;;;;;7.53;1.37;;;1.30;99.90;;;;;;5029094;28;20181;-83
2023/03/27 03:43:29;;;;;;;2.80;1.13;;;1.40;99.90;;;;;;5031192;28;20210;-83
2023/03/27 03:45:55;;;;;;;2.50;0.80;;;1.40;99.90;;;;;;5032486;28;20199;-83
2023/03/27 03:48:22;;;;;;;5.67;0.80;;;1.40;99.90;;;;;;5032570;28;20194;-83
2023/03/27 03:50:48;;;;;;;3.90;1.10;;;1.30;99.90;;;;;;5030498;28;20181;-82
2023/03/27 03:53:17;;;;;;;4.60;1.13;;;1.30;99.90;;;;;;5031630;28;20918;-83
2023/03/27 03:55:44;;;;;;;8.50;1.10;;;1.30;99.90;;;;;;5014626;28;20198;-83
2023/03/27 03:58:10;;;;;;;6.13;1.33;;;1.30;99.90;;;;;;5032544;28;20175;-82
2023/03/27 04:00:37;;;;;;;1.30;0.70;;;1.30;99.90;;;;;;5030395;28;20186;-83
2023/03/27 04:03:06;;;;;;;4.33;1.00;;;1.30;99.90;;;;;;5032168;28;20308;-83
2023/03/27 04:05:31;;;;;;;5.23;0.87;;;1.30;99.90;;;;;;5032464;28;20393;-82
2023/03/27 04:08:01;;;;;;;7.00;1.43;;;1.30;99.90;;;;;;5032436;28;20175;-83
2023/03/27 04:10:28;;;;;;;6.00;0.90;;;1.30;99.90;;;;;;5029031;28;20221;-83
2023/03/27 04:12:54;;;;;;;2.60;0.97;;;1.40;99.90;;;;;;5020434;28;20179;-83
2023/03/27 04:15:20;;;;;;;4.10;1.03;;;1.40;99.90;;;;;;5032649;28;20182;-83
2023/03/27 04:17:47;;;;;;;4.83;1.10;;;1.30;99.90;;;;;;5017296;28;20190;-83
2023/03/27 04:20:13;;;;;;;4.00;0.93;;;1.40;99.90;;;;;;5026159;28;20188;-83
2023/03/27 04:22:47;;;;;;;5.07;1.17;;;1.30;99.90;;;;;;5016242;28;20182;-83
2023/03/27 04:25:16;;;;;;;3.17;1.00;;;1.30;99.90;;;;;;5018296;28;20324;-83
2023/03/27 04:27:42;;;;;;;3.43;0.77;;;1.30;99.90;;;;;;5035502;28;20293;-83
2023/03/27 04:30:12;;;;;;;5.43;1.30;;;1.20;99.90;;;;;;5025260;28;20515;-82
2023/03/27 04:32:39;;;;;;;5.40;0.80;;;1.20;99.90;;;;;;5032624;28;20193;-82
2023/03/27 04:35:05;;;;;;;2.97;1.10;;;1.20;99.90;;;;;;5035746;28;20204;-83
2023/03/27 04:37:30;;;;;;;6.63;1.30;;;1.30;99.90;;;;;;5034811;28;20229;-83
2023/03/27 04:39:57;;;;;;;5.87;0.77;;;1.30;99.90;;;;;;5033635;28;20193;-82
2023/03/27 04:42:23;;;;;;;4.83;1.33;;;1.40;99.90;;;;;;5017338;28;20183;-82
2023/03/27 04:44:51;;;;;;;7.23;1.30;;;1.40;99.90;;;;;;5017179;28;20213;-83
2023/03/27 04:47:17;;;;;;;5.30;1.00;;;1.40;99.90;;;;;;5033785;28;20194;-83
2023/03/27 04:49:49;;;;;;;6.97;1.57;;;1.40;99.90;;;;;;5035775;28;20187;-83
2023/03/27 04:52:16;;;;;;;6.40;1.20;;;1.50;99.90;;;;;;5032157;28;20192;-82
2023/03/27 04:54:42;;;;;;;2.40;1.07;;;1.40;99.90;;;;;;5035176;28;20186;-83
2023/03/27 04:57:09;;;;;;;4.23;1.07;;;1.40;99.90;;;;;;5035052;28;20632;-82
2023/03/27 04:59:35;;;;;;;5.97;1.30;;;1.40;99.90;;;;;;5033049;28;20197;-81
2023/03/27 05:02:04;;;;;;;8.07;1.33;;;1.40;99.90;;;;;;5032599;28;20186;-83
2023/03/27 05:04:30;;;;;;;3.37;1.10;;;1.40;99.90;;;;;;5033606;28;20217;-82
2023/03/27 05:06:58;;;;;;;8.60;1.67;;;1.40;99.90;;;;;;5034641;28;20192;-82
2023/03/27 05:09:24;;;;;;;4.40;1.27;;;1.30;99.90;;;;;;5034206;28;20220;-82
2023/03/27 05:11:51;;;;;;;4.97;1.00;;;1.40;99.90;;;;;;5033655;28;20190;-82
2023/03/27 05:14:18;;;;;;;4.03;1.13;;;1.30;99.90;;;;;;5018718;28;20193;-82
2023/03/27 05:16:44;;;;;;;5.13;0.70;;;1.30;99.90;;;;;;5035276;28;20499;-82
2023/03/27 05:19:10;;;;;;;10.40;1.20;;;1.40;99.90;;;;;;5023340;28;20240;-81
2023/03/27 05:21:36;;;;;;;2.53;1.10;;;1.40;99.90;;;;;;5019176;28;20664;-82
2023/03/27 05:24:02;;;;;;;5.57;1.30;;;1.40;99.90;;;;;;5033973;28;20218;-82
2023/03/27 05:26:28;;;;;;;7.93;1.20;;;1.30;99.90;;;;;;5035169;28;20238;-81
2023/03/27 05:28:54;;;;;;;2.70;1.10;;;1.40;99.90;;;;;;5033162;28;20824;-82
2023/03/27 05:31:21;;;;;;;6.03;1.07;;;1.50;99.90;;;;;;5032078;28;20948;-82
2023/03/27 05:33:47;;;;;;;7.40;1.70;;;1.50;99.90;;;;;;5032240;28;20269;-81
2023/03/27 05:36:14;;;;;;;4.93;1.07;;;1.50;99.90;;;;;;5034123;28;20222;-82
2023/03/27 05:38:41;;;;;;;5.53;1.00;;;1.60;99.90;;;;;;5031070;28;20207;-83
2023/03/27 05:41:08;;;;;;;8.50;1.37;;;1.60;99.90;;;;;;5034026;28;20174;-83
2023/03/27 05:43:35;;;;;;;5.67;1.60;;;1.70;99.90;;;;;;5033146;28;20261;-82
2023/03/27 05:46:01;;;;;;;4.67;1.43;;;1.70;99.90;;;;;;5033730;28;20181;-84
2023/03/27 05:48:27;;;;;;;6.23;1.53;;;1.80;99.90;;;;;;5033889;28;20595;-81
2023/03/27 05:50:53;;;;;;;5.07;1.23;;;1.80;99.90;;;;;;5016803;28;20218;-82
2023/03/27 05:53:19;;;;;;;4.87;1.20;;;1.90;99.90;;;;;;5032999;28;20261;-82
2023/03/27 05:55:45;;;;;;;7.80;1.40;;;1.90;99.90;;;;;;5014573;28;20179;-82
2023/03/27 05:58:12;;;;;;;4.10;1.10;;;2.00;99.90;;;;;;5016724;28;20265;-84
2023/03/27 06:00:41;;;;;;;5.93;1.10;;;2.00;99.90;;;;;;5033250;28;20187;-83
2023/03/27 06:03:09;;;;;;;7.60;1.50;;;2.10;99.90;;;;;;5015627;28;20231;-83
2023/03/27 06:05:36;;;;;;;6.67;1.37;;;2.10;99.90;;;;;;5032668;28;20226;-83
2023/03/27 06:08:02;;;;;;;9.50;1.03;;;2.10;99.90;;;;;;5013405;28;20238;-83
2023/03/27 06:10:29;;;;;;;5.30;1.63;;;2.20;99.90;;;;;;5032792;28;20190;-84
2023/03/27 06:13:00;;;;;;;6.10;1.17;;;2.30;99.90;;;;;;5032991;28;20189;-83
2023/03/27 06:15:26;;;;;;;2.00;0.93;;;2.30;99.90;;;;;;5029979;28;20546;-82
2023/03/27 06:17:52;;;;;;;10.37;1.87;;;2.30;99.90;;;;;;5015034;28;20185;-83
2023/03/27 06:20:20;;;;;;;5.70;1.40;;;2.40;99.90;;;;;;5033073;28;20186;-83
2023/03/27 06:22:51;;;;;;;4.90;1.27;;;2.40;99.90;;;;;;5012502;28;20725;-83
2023/03/27 06:25:17;;;;;;;8.00;1.93;;;2.40;99.90;;;;;;5032147;28;20261;-83
2023/03/27 06:27:45;;;;;;;11.13;1.53;;;2.50;99.90;;;;;;5032705;28;20182;-83
2023/03/27 06:30:12;;;;;;;3.53;1.23;;;2.60;99.90;;;;;;5031515;28;20194;-83
2023/03/27 06:32:45;;;;;;;2.37;1.07;;;2.60;99.90;;;;;;5031167;28;20192;-83
2023/03/27 06:35:13;;;;;;;6.37;1.30;;;2.80;99.90;;;;;;5032839;28;20173;-84
2023/03/27 06:37:47;;;;;;;13.57;1.80;;;2.80;99.90;;;;;;5044725;28;20321;-82
2023/03/27 06:40:23;;;;;;;10.30;1.33;;;3.00;99.90;;;;;;5029798;28;20178;-84
2023/03/27 06:42:54;;;;;;;7.60;1.70;;;3.10;99.90;;;;;;5021426;28;20177;-82
2023/03/27 06:45:26;;;;;;;3.67;1.07;;;3.20;99.90;;;;;;5049345;28;20241;-84
2023/03/27 06:47:57;;;;;;;2.50;1.20;;;3.10;99.90;;;;;;5028053;28;20385;-83
2023/03/27 06:50:25;;;;;;;5.33;1.40;;;3.10;99.90;;;;;;5023651;28;20201;-84
2023/03/27 06:52:51;;;;;;;3.97;1.37;;;3.10;99.90;;;;;;5031755;28;20510;-83
2023/03/27 06:55:19;;;;;;;6.07;1.47;;;3.10;99.90;;;;;;5033657;28;20167;-83
2023/03/27 06:57:47;;;;;;;5.77;1.43;;;3.00;99.90;;;;;;5032753;28;20198;-83
2023/03/27 07:00:18;;;;;;;5.60;1.40;;;3.20;99.90;;;;;;5030234;28;20190;-83
2023/03/27 07:02:48;;;;;;;3.00;1.20;;;3.20;99.90;;;;;;5048853;28;20603;-83
2023/03/27 07:05:15;;;;;;;8.47;1.43;;;3.30;99.90;;;;;;5031821;28;20205;-84
2023/03/27 07:07:42;;;;;;;4.47;1.40;;;3.40;99.90;;;;;;5033437;28;20174;-83
2023/03/27 07:10:09;;;;;;;9.90;1.50;;;3.50;99.90;;;;;;5032775;28;20520;-83
2023/03/27 07:12:35;;;;;;;7.73;1.70;;;3.50;99.90;;;;;;5033685;28;20185;-84
2023/03/27 07:15:02;;;;;;;4.63;1.50;;;3.60;99.90;;;;;;5015322;28;20757;-82
2023/03/27 07:17:28;;;;;;;7.67;1.33;;;3.60;99.90;;;;;;5020192;28;20194;-83
2023/03/27 07:19:55;;;;;;;4.90;1.57;;;3.70;99.90;;;;;;5031467;28;20226;-83
2023/03/27 07:22:20;;;;;;;6.60;1.40;;;3.80;99.90;;;;;;5048691;28;20652;-84
2023/03/27 07:24:46;;;;;;;8.03;2.00;;;3.80;99.90;;;;;;5047517;28;20722;-83
2023/03/27 07:27:12;;;;;;;9.80;1.50;;;3.80;99.90;;;;;;5033388;28;20179;-82
2023/03/27 07:29:37;;;;;;;6.73;1.50;;;4.00;99.90;;;;;;5030915;28;20530;-83
2023/03/27 07:32:04;;;;;;;4.47;1.53;;;4.10;99.90;;;;;;5040480;28;20220;-82
2023/03/27 07:34:29;;;;;;;9.03;1.83;;;4.10;99.90;;;;;;5033218;28;20602;-82
2023/03/27 07:36:58;;;;;;;5.00;1.53;;;4.00;99.90;;;;;;5042425;28;20250;-83
2023/03/27 07:39:24;;;;;;;5.20;1.60;;;3.90;99.90;;;;;;5020102;28;20187;-82
2023/03/27 07:41:51;;;;;;;3.40;1.10;;;4.00;99.90;;;;;;5047655;28;20613;-82
2023/03/27 07:44:17;;;;;;;7.67;1.20;;;4.00;99.90;;;;;;5032321;28;20223;-82
2023/03/27 07:46:44;;;;;;;5.93;1.40;;;4.10;99.90;;;;;;5048525;28;20545;-82
2023/03/27 07:49:10;;;;;;;7.40;1.30;;;4.20;99.90;;;;;;5031413;28;20573;-83
2023/03/27 07:51:37;;;;;;;6.93;1.67;;;4.30;99.90;;;;;;5037927;28;20183;-83
2023/03/27 07:54:03;;;;;;;4.20;1.50;;;4.30;99.90;;;;;;5023199;28;20206;-84
2023/03/27 07:56:32;;;;;;;7.60;1.30;;;4.30;99.90;;;;;;5052478;28;20202;-82
2023/03/27 07:58:59;;;;;;;5.80;1.20;;;4.40;99.90;;;;;;5035734;28;20189;-82
2023/03/27 08:01:24;;;;;;;7.97;1.63;;;4.50;99.90;;;;;;5020548;28;20186;-82
2023/03/27 08:03:51;;;;;;;5.10;1.20;;;4.60;99.90;;;;;;5034599;28;20217;-84
2023/03/27 08:06:17;;;;;;;6.23;1.23;;;4.60;99.90;;;;;;5036078;28;20616;-82
2023/03/27 08:08:43;;;;;;;6.37;1.43;;;4.70;99.90;;;;;;5032746;28;20202;-83
2023/03/27 08:11:09;;;;;;;3.63;1.17;;;4.70;99.90;;;;;;5032008;28;20187;-84
2023/03/27 08:13:35;;;;;;;4.70;1.10;;;4.80;99.90;;;;;;5032203;28;20186;-82
2023/03/27 08:16:06;;;;;;;6.40;1.43;;;4.80;99.90;;;;;;5050762;28;20212;-82
2023/03/27 08:18:32;;;;;;;7.40;1.13;;;4.70;99.90;;;;;;5044162;28;20183;-82
2023/03/27 08:21:00;;;;;;;6.63;1.30;;;4.70;99.90;;;;;;5036048;28;20186;-83
2023/03/27 08:23:26;;;;;;;3.77;1.30;;;4.80;99.90;;;;;;5019377;28;20211;-83
2023/03/27 08:25:53;;;;;;;3.27;1.10;;;4.80;99.90;;;;;;5015549;28;20610;-84
2023/03/27 08:28:19;;;;;;;3.20;0.77;;;4.90;99.90;;;;;;5028619;28;20225;-83
2023/03/27 08:30:45;;;;;;;5.30;1.20;;;4.90;99.90;;;;;;5036018;28;20175;-84
2023/03/27 08:33:11;;;;;;;3.90;1.00;;;4.90;99.90;;;;;;5047570;28;20232;-83
2023/03/27 08:35:36;;;;;;;3.73;1.00;;;4.80;99.90;;;;;;5031455;28;20186;-84
2023/03/27 08:38:03;;;;;;;3.57;1.47;;;4.90;99.90;;;;;;5033215;28;20668;-83
2023/03/27 08:40:32;;;;;;;3.23;0.90;;;4.90;99.90;;;;;;5033567;28;20277;-83
2023/03/27 08:43:05;;;;;;;4.07;1.00;;;4.80;99.90;;;;;;5033701;28;20213;-82
2023/03/27 08:45:41;;;;;;;3.20;1.07;;;5.00;99.90;;;;;;5035194;28;20313;-84
2023/03/27 08:48:22;;;;;;;2.93;1.00;;;5.10;99.90;;;;;;5031194;28;20178;-84
2023/03/27 08:50:58;;;;;;;2.77;0.93;;;5.20;99.90;;;;;;5035870;28;20598;-84
2023/03/27 08:53:31;;;;;;;3.73;1.17;;;5.20;99.90;;;;;;5014780;28;20182;-83
2023/03/27 08:55:56;;;;;;;4.33;1.10;;;5.20;99.90;;;;;;5026796;28;20221;-82
2023/03/27 08:58:22;;;;;;;2.77;1.00;;;5.30;99.90;;;;;;5018142;28;20218;-83
2023/03/27 09:01:20;;;;;;;4.37;0.90;;;5.50;99.90;;;;;;5016718;28;20191;-84
2023/03/27 09:04:00;;;;;;;2.27;0.93;;;5.60;99.90;;;;;;5034050;28;20301;-85
2023/03/27 09:06:33;;;;;;;5.87;1.20;;;5.90;99.90;;;;;;5016252;28;20235;-83
2023/03/27 09:09:13;;;;;;;5.30;0.93;;;5.90;99.90;;;;;;5032059;28;20517;-83
2023/03/27 09:11:53;;;;;;;2.90;1.00;;;5.90;99.90;;;;;;5012371;28;20201;-84
2023/03/27 09:14:38;;;;;;;4.23;0.90;;;6.20;99.90;;;;;;5035579;28;20217;-84
2023/03/27 09:17:15;;;;;;;3.53;0.87;;;6.30;99.90;;;;;;5034341;28;20233;-84
2023/03/27 09:20:08;;;;;;;3.90;1.00;;;6.20;99.90;;;;;;5033081;28;20213;-84
2023/03/27 09:22:43;;;;;;;2.73;1.10;;;5.90;99.90;;;;;;5033520;28;20205;-82
2023/03/27 09:25:25;;;;;;;7.40;1.43;;;6.00;99.90;;;;;;5031925;28;20194;-83
2023/03/27 09:27:51;;;;;;;4.13;1.00;;;6.00;99.90;;;;;;5034211;28;20202;-84
2023/03/27 09:30:27;;;;;;;4.10;1.37;;;5.80;99.90;;;;;;5013043;28;20193;-83
2023/03/27 09:32:56;;;;;;;5.23;0.97;;;5.70;99.90;;;;;;5032690;28;20569;-83
2023/03/27 09:35:22;;;;;;;2.40;1.50;;;5.70;99.90;;;;;;5011928;28;20186;-84
2023/03/27 09:37:55;;;;;;;2.97;0.90;;;5.70;99.90;;;;;;5041535;28;20257;-84
2023/03/27 09:40:35;;;;;;;5.13;1.10;;;5.80;99.90;;;;;;5045666;28;20210;-83
2023/03/27 09:43:17;;;;;;;5.97;1.70;;;6.20;99.90;;;;;;5026036;28;20221;-85
2023/03/27 09:45:45;;;;;;;7.33;1.50;;;6.40;99.90;;;;;;5028470;28;20201;-82
2023/03/27 09:48:25;;;;;;;4.17;1.27;;;6.50;99.90;;;;;;5033140;28;20186;-84
2023/03/27 09:50:51;;;;;;;10.60;1.40;;;6.30;99.90;;;;;;5029857;28;20633;-84
2023/03/27 09:53:21;;;;;;;5.43;1.10;;;6.30;99.90;;;;;;5014692;28;20169;-83
2023/03/27 09:55:54;;;;;;;5.90;1.00;;;6.50;99.90;;;;;;5015851;28;20317;-83
2023/03/27 09:58:29;;;;;;;7.60;0.90;;;6.60;99.90;;;;;;5042840;28;20270;-88
2023/03/27 10:01:06;;;;;;;4.00;1.17;;;6.40;99.90;;;;;;5026993;28;20271;-83
2023/03/27 10:03:47;;;;;;;3.53;1.03;;;6.20;99.90;;;;;;5034639;28;20194;-84
2023/03/27 10:06:22;;;;;;;6.73;1.20;;;6.40;99.90;;;;;;5047789;28;20193;-82
2023/03/27 10:08:51;;;;;;;4.13;0.97;;;6.30;99.90;;;;;;5030028;28;20196;-82
2023/03/27 10:11:24;;;;;;;7.57;1.43;;;6.30;99.90;;;;;;5026363;28;20179;-81
2023/03/27 10:13:51;;;;;;;5.50;1.43;;;6.10;99.90;;;;;;5030178;28;20546;-84
2023/03/27 10:16:21;;;;;;;4.40;1.13;;;5.90;99.90;;;;;;5034224;28;20175;-83
2023/03/27 10:18:50;;;;;;;3.13;0.80;;;5.60;99.90;;;;;;5014626;28;20186;-85
2023/03/27 10:21:26;;;;;;;4.47;0.77;;;5.30;99.90;;;;;;5016511;28;20269;-86
2023/03/27 10:24:03;;;;;;;6.27;0.80;;;5.00;99.90;;;;;;5031722;28;20212;-85
2023/03/27 10:26:31;;;;;;;0.83;0.67;;;4.70;99.90;;;;;;5034819;28;20174;-89
2023/03/27 10:29:04;;;;;;;4.63;1.00;;;3.90;99.90;;;;;;5032487;28;20174;-85
2023/03/27 10:31:36;;;;;;;1.40;0.87;;;3.20;99.90;;;;;;5015100;28;20244;-83
2023/03/27 10:34:05;;;;;;;3.97;1.13;;;2.90;99.90;;;;;;5049186;28;20182;-85
2023/03/27 10:36:33;;;;;;;2.13;0.70;;;2.90;99.90;;;;;;5033094;28;20222;-84
2023/03/27 10:39:13;;;;;;;2.77;1.00;;;3.10;99.90;;;;;;5016222;28;20175;-84
2023/03/27 10:41:39;;;;;;;1.73;0.77;;;3.20;99.90;;;;;;5030713;28;20218;-82
2023/03/27 10:44:17;;;;;;;2.73;0.90;;;3.40;99.90;;;;;;5031673;28;20211;-83
2023/03/27 10:46:43;;;;;;;5.93;1.00;;;3.90;99.90;;;;;;5015678;28;20642;-85
2023/03/27 10:49:15;;;;;;;3.10;0.90;;;4.30;99.90;;;;;;5032548;28;20178;-83
2023/03/27 10:51:55;;;;;;;4.10;1.00;;;4.70;99.90;;;;;;5030915;28;20186;-84
2023/03/27 10:54:24;;;;;;;2.43;0.83;;;5.00;99.90;;;;;;5015709;28;20166;-84
2023/03/27 10:56:57;;;;;;;4.43;0.80;;;5.00;99.90;;;;;;5015136;28;20217;-84
2023/03/27 10:59:41;;;;;;;1.60;0.63;;;4.90;99.90;;;;;;5015606;28;20194;-86
2023/03/27 11:02:31;;;;;;;4.63;0.87;;;4.70;99.90;;;;;;5018177;28;20187;-86
2023/03/27 11:05:10;;;;;;;4.13;1.07;;;4.50;99.90;;;;;;5012845;28;20215;-84
2023/03/27 11:08:09;;;;;;;1.63;0.80;;;4.30;99.90;;;;;;4998183;28;20204;-88
2023/03/27 11:10:59;;;;;;;1.63;0.60;;;4.10;99.90;;;;;;5015634;28;20194;-86
2023/03/27 11:13:32;;;;;;;2.60;0.83;;;3.60;99.90;;;;;;5028891;28;20571;-85
2023/03/27 11:16:20;;;;;;;2.07;0.67;;;3.50;99.90;;;;;;5033673;28;20163;-86
2023/03/27 11:18:51;;;;;;;1.13;0.60;;;3.50;99.90;;;;;;5031898;28;20182;-87
2023/03/27 11:21:41;;;;;;;2.63;0.70;;;3.40;99.90;;;;;;5015064;28;20256;-86
2023/03/27 11:24:19;;;;;;;1.87;0.90;;;3.30;99.90;;;;;;5015070;28;20221;-86
2023/03/27 11:27:00;;;;;;;6.50;1.00;;;3.30;99.90;;;;;;5037456;28;20209;-84
2023/03/27 11:29:33;;;;;;;1.67;0.90;;;3.40;99.90;;;;;;5027809;28;20183;-85
2023/03/27 11:32:06;;;;;;;1.53;0.40;;;3.40;99.90;;;;;;5026335;28;20228;-84
2023/03/27 11:34:47;;;;;;;1.43;0.60;;;3.40;99.90;;;;;;5035419;28;20178;-85
2023/03/27 11:37:19;;;;;;;1.27;0.50;;;3.40;99.90;;;;;;5043714;28;20226;-85
2023/03/27 11:39:56;;;;;;;4.43;0.93;;;3.40;99.90;;;;;;5052463;28;20298;-85
2023/03/27 11:42:27;;;;;;;3.53;0.70;;;3.50;99.90;;;;;;5050858;28;20190;-85
2023/03/27 11:44:53;;;;;;;1.33;0.73;;;3.50;99.90;;;;;;5052234;28;20218;-85
2023/03/27 11:47:34;;;;;;;0.73;0.40;;;3.60;99.90;;;;;;5035035;28;20489;-85
2023/03/27 11:51:01;;;;;;;1.00;0.60;;;3.60;99.90;;;;;;5036903;28;20198;-86
2023/03/27 11:53:44;;;;;;;4.07;0.60;;;3.70;99.90;;;;;;4974485;28;20639;-85
2023/03/27 11:56:17;;;;;;;1.97;0.60;;;3.80;99.90;;;;;;5013637;28;20195;-85
2023/03/27 11:59:16;;;;;;;1.23;0.60;;;4.10;99.90;;;;;;5030207;28;20542;-86
2023/03/27 12:02:17;;;;;;;1.57;0.60;;;4.60;99.90;;;;;;5051515;28;20224;-84
2023/03/27 12:04:54;;;;;;;1.60;0.67;;;5.00;99.90;;;;;;5016601;28;20230;-85
2023/03/27 12:07:41;;;;;;;4.30;0.83;;;5.30;99.90;;;;;;5051289;28;20605;-85
2023/03/27 12:10:26;;;;;;;4.87;1.00;;;5.50;99.90;;;;;;5036732;28;20674;-85
2023/03/27 12:12:52;;;;;;;1.37;0.70;;;5.80;99.90;;;;;;5031318;28;20175;-85
2023/03/27 12:15:58;;;;;;;1.60;0.70;;;5.90;99.90;;;;;;5035413;28;20186;-86
2023/03/27 12:18:36;;;;;;;3.90;0.73;;;5.90;99.90;;;;;;5033458;28;20174;-84
2023/03/27 12:21:12;;;;;;;2.93;1.00;;;6.10;99.90;;;;;;5036469;28;20170;-83
2023/03/27 12:24:22;;;;;;;2.63;0.80;;;6.00;99.90;;;;;;5034648;28;20210;-83
2023/03/27 12:27:04;;;;;;;2.00;0.80;;;6.20;99.90;;;;;;5015239;28;20186;-83
2023/03/27 12:29:51;;;;;;;2.57;0.73;;;6.40;99.90;;;;;;5035534;28;20182;-83
2023/03/27 12:32:35;;;;;;;2.13;1.10;;;6.70;99.90;;;;;;5035436;28;20178;-82
2023/03/27 12:35:16;;;;;;;2.47;0.97;;;6.70;99.90;;;;;;5016195;28;20177;-82
2023/03/27 12:37:56;;;;;;;1.77;0.60;;;6.70;99.90;;;;;;5015977;28;20226;-86
2023/03/27 12:40:34;;;;;;;1.43;0.70;;;6.40;99.90;;;;;;5036075;28;20177;-82
2023/03/27 12:43:20;;;;;;;2.47;0.63;;;6.40;99.90;;;;;;5034551;28;20182;-85
2023/03/27 12:46:06;;;;;;;1.80;0.50;;;6.10;99.90;;;;;;5035439;28;20190;-82
2023/03/27 12:48:31;;;;;;;1.53;0.50;;;5.40;99.90;;;;;;5035819;28;20206;-84
2023/03/27 12:50:57;;;;;;;0.73;0.43;;;4.90;99.90;;;;;;5035888;28;20178;-89
2023/03/27 12:53:29;;;;;;;1.40;0.60;;;4.20;99.90;;;;;;5035639;28;20217;-84
2023/03/27 12:56:16;;;;;;;0.70;0.40;;;3.70;99.90;;;;;;5035298;28;20186;-85
2023/03/27 12:58:51;;;;;;;3.77;0.60;;;3.50;99.90;;;;;;5016549;28;20168;-83
2023/03/27 13:01:42;;;;;;;0.70;0.50;;;3.40;99.90;;;;;;5015952;28;20278;-83
2023/03/27 13:04:47;;;;;;;3.53;0.83;;;3.40;99.90;;;;;;5032756;28;20211;-82
2023/03/27 13:07:28;;;;;;;0.93;0.60;;;3.40;99.90;;;;;;5033933;28;20194;-82
2023/03/27 13:10:05;;;;;;;1.00;0.50;;;3.30;99.90;;;;;;5034873;28;20656;-83
2023/03/27 13:12:56;;;;;;;3.10;0.70;;;3.30;99.90;;;;;;5033211;28;20617;-84
2023/03/27 13:15:30;;;;;;;0.67;0.43;;;3.30;99.90;;;;;;5049025;28;20191;-82
2023/03/27 13:18:27;;;;;;;2.10;0.77;;;3.30;99.90;;;;;;5035587;28;20245;-84
2023/03/27 13:21:07;;;;;;;1.80;0.70;;;3.30;99.90;;;;;;5034780;28;20525;-84
2023/03/27 13:24:02;;;;;;;2.00;0.90;;;3.40;99.90;;;;;;5033007;28;20206;-82
2023/03/27 13:27:22;;;;;;;1.53;0.60;;;3.40;99.90;;;;;;5044983;28;20198;-83